createdAt,value
2023-03-31T00:02:01.874Z,10.69
2023-03-31T00:04:52.674Z,10.68
2023-03-31T00:07:38.916Z,10.67
2023-03-31T00:10:24.640Z,10.64
2023-03-31T00:13:11.241Z,10.58
2023-03-31T00:15:59.147Z,10.58
2023-03-31T00:18:47.225Z,10.55
2023-03-31T00:21:34.479Z,10.53
2023-03-31T00:24:20.408Z,10.48
2023-03-31T00:27:06.532Z,10.45
2023-03-31T00:29:53.034Z,10.39
2023-03-31T00:32:40.286Z,10.34
2023-03-31T00:35:26.662Z,10.26
2023-03-31T00:38:14.364Z,10.22
2023-03-31T00:41:00.492Z,10.18
2023-03-31T00:44:01.049Z,10.15
2023-03-31T00:46:47.838Z,10.11
2023-03-31T00:49:36.289Z,10.02
2023-03-31T00:52:23.001Z,10.05
2023-03-31T00:55:09.951Z,10.04
2023-03-31T00:57:56.014Z,10.04
2023-03-31T01:00:42.927Z,10.03
2023-03-31T01:03:30.425Z,10.04
2023-03-31T01:06:19.796Z,10.06
2023-03-31T01:09:06.939Z,10.07
2023-03-31T01:11:52.849Z,10.06
2023-03-31T01:14:38.487Z,10.08
2023-03-31T01:17:29.865Z,10.07
2023-03-31T01:20:18.149Z,10.04
2023-03-31T01:23:19.337Z,9.98
2023-03-31T01:26:14.980Z,9.94
2023-03-31T01:29:01.755Z,9.90
2023-03-31T01:32:03.016Z,9.86
2023-03-31T01:34:53.695Z,9.82
2023-03-31T01:37:50.186Z,9.78
2023-03-31T01:40:55.610Z,9.71
2023-03-31T01:43:44.569Z,9.63
2023-03-31T01:46:32.369Z,9.61
2023-03-31T01:49:18.765Z,9.61
2023-03-31T01:52:05.308Z,9.61
2023-03-31T01:54:52.917Z,9.60
2023-03-31T01:57:38.900Z,9.61
2023-03-31T02:00:26.951Z,9.58
2023-03-31T02:03:16.881Z,9.56
2023-03-31T02:06:04.639Z,9.52
2023-03-31T02:08:50.877Z,9.48
2023-03-31T02:11:36.773Z,9.44
2023-03-31T02:14:23.478Z,9.43
2023-03-31T02:17:14.029Z,9.39
2023-03-31T02:20:00.915Z,9.38
2023-03-31T02:22:47.546Z,9.41
2023-03-31T02:25:34.707Z,9.43
2023-03-31T02:28:22.029Z,9.38
2023-03-31T02:31:09.481Z,9.38
2023-03-31T02:33:57.032Z,9.38
2023-03-31T02:36:43.850Z,9.34
2023-03-31T02:39:30.329Z,9.31
2023-03-31T02:42:16.167Z,9.30
2023-03-31T02:45:03.047Z,9.29
2023-03-31T02:47:49.424Z,9.30
2023-03-31T02:50:39.745Z,9.29
2023-03-31T02:53:26.394Z,9.24
2023-03-31T02:56:16.570Z,9.23
2023-03-31T02:59:06.631Z,9.21
2023-03-31T03:01:55.898Z,9.19
2023-03-31T03:04:51.224Z,9.19
2023-03-31T03:07:39.423Z,9.18
2023-03-31T03:10:28.407Z,9.16
2023-03-31T03:13:16.813Z,9.09
2023-03-31T03:16:04.747Z,9.08
2023-03-31T03:18:53.970Z,9.10
2023-03-31T03:21:39.884Z,9.13
2023-03-31T03:24:30.139Z,9.12
2023-03-31T03:27:16.309Z,9.11
2023-03-31T03:30:04.676Z,9.13
2023-03-31T03:32:50.503Z,9.11
2023-03-31T03:35:36.849Z,9.14
2023-03-31T03:38:23.030Z,9.18
2023-03-31T03:41:10.328Z,9.16
2023-03-31T03:43:56.510Z,9.15
2023-03-31T03:46:42.199Z,9.12
2023-03-31T03:49:28.078Z,9.11
2023-03-31T03:52:13.828Z,9.09
2023-03-31T03:54:59.454Z,9.09
2023-03-31T03:57:46.599Z,9.08
2023-03-31T04:00:32.337Z,9.04
2023-03-31T04:03:18.228Z,9.02
2023-03-31T04:06:04.853Z,9.00
2023-03-31T04:08:51.107Z,8.99
2023-03-31T04:11:36.938Z,8.99
2023-03-31T04:14:25.884Z,9.00
2023-03-31T04:17:15.713Z,9.01
2023-03-31T04:20:02.741Z,9.01
2023-03-31T04:22:50.665Z,9.05
2023-03-31T04:25:38.554Z,9.05
2023-03-31T04:28:26.618Z,9.07
2023-03-31T04:31:15.743Z,9.09
2023-03-31T04:34:02.283Z,9.10
2023-03-31T04:36:48.870Z,9.15
2023-03-31T04:39:34.512Z,9.16
2023-03-31T04:42:20.265Z,9.18
2023-03-31T04:45:06.400Z,9.17
2023-03-31T04:47:53.643Z,9.15
2023-03-31T04:50:39.934Z,9.14
2023-03-31T04:53:26.057Z,9.12
2023-03-31T04:56:12.273Z,9.07
2023-03-31T04:58:58.000Z,9.07
2023-03-31T05:01:45.149Z,9.06
2023-03-31T05:04:32.507Z,9.04
2023-03-31T05:07:18.823Z,9.03
2023-03-31T05:10:04.737Z,9.01
2023-03-31T05:12:51.104Z,9.00
2023-03-31T05:15:38.207Z,8.99
2023-03-31T05:18:24.117Z,9.02
2023-03-31T05:21:12.124Z,9.05
2023-03-31T05:23:58.155Z,9.05
2023-03-31T05:26:48.384Z,9.07
2023-03-31T05:29:34.421Z,9.09
2023-03-31T05:32:20.594Z,9.09
2023-03-31T05:35:07.562Z,9.06
2023-03-31T05:37:54.549Z,9.11
2023-03-31T05:40:40.324Z,9.13
2023-03-31T05:43:26.396Z,9.13
2023-03-31T05:46:12.651Z,9.13
2023-03-31T05:48:58.805Z,9.13
2023-03-31T05:51:44.866Z,9.15
2023-03-31T05:54:32.037Z,9.16
2023-03-31T05:57:18.210Z,9.20
2023-03-31T06:00:06.197Z,9.23
2023-03-31T06:02:52.565Z,9.21
2023-03-31T06:05:38.380Z,9.26
2023-03-31T06:08:24.850Z,9.26
2023-03-31T06:11:12.911Z,9.26
2023-03-31T06:13:58.808Z,9.30
2023-03-31T06:16:44.568Z,9.31
2023-03-31T06:19:31.318Z,9.31
2023-03-31T06:22:17.216Z,9.33
2023-03-31T06:25:03.228Z,9.34
2023-03-31T06:27:50.242Z,9.32
2023-03-31T06:30:36.180Z,9.37
2023-03-31T06:33:22.020Z,9.37
2023-03-31T06:36:08.080Z,9.39
2023-03-31T06:38:54.378Z,9.39
2023-03-31T06:41:40.092Z,9.43
2023-03-31T06:44:27.214Z,9.45
2023-03-31T06:47:13.144Z,9.46
2023-03-31T06:49:58.906Z,9.45
2023-03-31T06:52:44.744Z,9.49
2023-03-31T06:55:30.482Z,9.50
2023-03-31T06:58:16.315Z,9.52
2023-03-31T07:01:04.990Z,9.54
2023-03-31T07:03:51.480Z,9.55
2023-03-31T07:06:37.776Z,9.56
2023-03-31T07:09:24.128Z,9.56
2023-03-31T07:12:10.383Z,9.63
2023-03-31T07:14:56.569Z,9.62
2023-03-31T07:17:43.827Z,9.68
2023-03-31T07:20:29.877Z,9.72
2023-03-31T07:23:15.909Z,9.77
2023-03-31T07:26:02.724Z,9.75
2023-03-31T07:28:48.964Z,9.75
2023-03-31T07:31:34.895Z,9.75
2023-03-31T07:34:22.557Z,9.79
2023-03-31T07:37:08.259Z,9.85
2023-03-31T07:39:54.267Z,9.85
2023-03-31T07:42:40.130Z,9.87
2023-03-31T07:45:26.529Z,9.87
2023-03-31T07:48:12.651Z,9.89
2023-03-31T07:51:00.189Z,9.93
2023-03-31T07:53:52.299Z,9.92
2023-03-31T07:56:37.989Z,9.98
2023-03-31T07:59:23.763Z,10.00
2023-03-31T08:02:10.768Z,10.04
2023-03-31T08:04:56.616Z,10.12
2023-03-31T08:07:44.814Z,10.18
2023-03-31T08:10:30.616Z,10.20
2023-03-31T08:13:16.270Z,10.20
2023-03-31T08:16:02.127Z,10.25
2023-03-31T08:18:48.306Z,10.28
2023-03-31T08:21:34.100Z,10.33
2023-03-31T08:24:21.362Z,10.38
2023-03-31T08:27:11.959Z,10.42
2023-03-31T08:29:58.357Z,10.51
2023-03-31T08:32:44.238Z,10.61
2023-03-31T08:35:30.490Z,10.69
2023-03-31T08:38:16.374Z,10.75
2023-03-31T08:41:04.184Z,10.78
2023-03-31T08:43:50.018Z,10.84
2023-03-31T08:46:36.472Z,10.88
2023-03-31T08:49:22.797Z,10.92
2023-03-31T08:52:10.211Z,10.96
2023-03-31T08:54:57.126Z,10.99
2023-03-31T08:57:48.235Z,11.00
2023-03-31T09:00:36.912Z,11.01
2023-03-31T09:03:24.998Z,11.02
2023-03-31T09:06:11.940Z,11.00
2023-03-31T09:08:58.669Z,10.98
2023-03-31T09:11:45.284Z,10.93
2023-03-31T09:14:33.608Z,10.95
2023-03-31T09:17:19.856Z,10.95
2023-03-31T09:20:08.454Z,10.89
2023-03-31T09:22:56.553Z,10.89
2023-03-31T09:25:42.321Z,10.89
2023-03-31T09:28:30.326Z,10.86
2023-03-31T09:31:18.591Z,10.79
2023-03-31T09:34:10.885Z,10.80
2023-03-31T09:36:56.513Z,10.78
2023-03-31T09:39:42.356Z,10.75
2023-03-31T09:42:28.219Z,10.71
2023-03-31T09:45:15.657Z,10.66
2023-03-31T09:48:03.902Z,10.68
2023-03-31T09:50:50.439Z,10.67
2023-03-31T09:53:39.598Z,10.66
2023-03-31T09:56:37.089Z,10.65
2023-03-31T09:59:23.507Z,10.64
2023-03-31T10:02:18.320Z,10.64
2023-03-31T10:05:06.709Z,10.67
2023-03-31T10:07:52.878Z,10.69
2023-03-31T10:10:38.930Z,10.72
2023-03-31T10:13:25.470Z,10.73
2023-03-31T10:16:13.100Z,10.73
2023-03-31T10:19:12.123Z,10.75
2023-03-31T10:21:59.564Z,10.75
2023-03-31T10:24:46.331Z,10.71
2023-03-31T10:27:32.738Z,10.79
2023-03-31T10:30:19.573Z,10.80
2023-03-31T10:33:22.190Z,10.83
2023-03-31T10:36:11.058Z,10.79
2023-03-31T10:38:58.276Z,10.76
2023-03-31T10:41:44.377Z,10.79
2023-03-31T10:44:31.605Z,10.82
2023-03-31T10:47:19.077Z,10.84
2023-03-31T10:50:05.566Z,10.84
2023-03-31T10:52:51.658Z,10.85
2023-03-31T10:55:40.990Z,10.80
2023-03-31T10:58:31.699Z,10.76
2023-03-31T11:01:22.076Z,10.79
2023-03-31T11:04:18.956Z,10.76
2023-03-31T11:07:05.853Z,10.74
2023-03-31T11:09:53.847Z,10.75
2023-03-31T11:12:41.996Z,10.75
2023-03-31T11:15:30.226Z,10.76
2023-03-31T11:18:23.672Z,10.74
2023-03-31T11:21:12.719Z,10.74
2023-03-31T11:24:00.831Z,10.67
2023-03-31T11:26:49.797Z,10.75
2023-03-31T11:29:38.226Z,10.70
2023-03-31T11:32:31.487Z,10.70
2023-03-31T11:35:21.291Z,10.73
2023-03-31T11:38:13.741Z,10.71
2023-03-31T11:41:01.215Z,10.70
2023-03-31T11:43:48.349Z,10.72
2023-03-31T11:46:38.625Z,10.69
2023-03-31T11:49:25.664Z,10.72
2023-03-31T11:52:14.956Z,10.75
2023-03-31T11:55:03.104Z,10.80
2023-03-31T11:58:00.028Z,10.86
2023-03-31T12:00:47.802Z,10.87
2023-03-31T12:03:36.825Z,10.92
2023-03-31T12:06:23.801Z,11.03
2023-03-31T12:09:12.861Z,11.12
2023-03-31T12:12:01.196Z,11.19
2023-03-31T12:14:48.667Z,11.32
2023-03-31T12:17:36.224Z,11.39
2023-03-31T12:20:26.474Z,11.47
2023-03-31T12:23:13.424Z,11.55
2023-03-31T12:26:01.387Z,11.66
2023-03-31T12:28:47.101Z,11.68
2023-03-31T12:31:33.403Z,11.90
2023-03-31T12:34:19.387Z,11.98
2023-03-31T12:37:14.490Z,12.10
2023-03-31T12:40:04.394Z,12.25
2023-03-31T12:43:09.254Z,12.38
2023-03-31T12:45:56.430Z,12.56
2023-03-31T12:48:51.455Z,12.63
2023-03-31T12:51:45.358Z,12.75
2023-03-31T12:54:41.360Z,12.84
2023-03-31T12:57:27.196Z,12.96
2023-03-31T13:00:24.020Z,13.10
2023-03-31T13:03:28.915Z,13.18
2023-03-31T13:06:29.848Z,13.38
2023-03-31T13:09:30.481Z,13.42
2023-03-31T13:12:18.922Z,13.46
2023-03-31T13:15:05.118Z,13.49
2023-03-31T13:17:55.490Z,13.52
2023-03-31T13:20:42.081Z,13.52
2023-03-31T13:23:28.702Z,13.39
2023-03-31T13:26:33.602Z,13.40
2023-03-31T13:29:22.878Z,13.26
2023-03-31T13:32:16.834Z,13.35
2023-03-31T13:35:03.549Z,13.28
2023-03-31T13:37:54.450Z,13.19
2023-03-31T13:40:54.801Z,13.15
2023-03-31T13:43:45.837Z,13.14
2023-03-31T13:46:41.971Z,13.01
2023-03-31T13:49:46.574Z,12.96
2023-03-31T13:52:36.865Z,12.95
2023-03-31T13:55:37.334Z,12.92
2023-03-31T13:58:34.337Z,12.85
2023-03-31T14:01:48.939Z,12.81
2023-03-31T14:04:50.678Z,12.78
2023-03-31T14:07:38.200Z,12.78
2023-03-31T14:10:25.526Z,12.77
2023-03-31T14:13:12.239Z,12.80
2023-03-31T14:15:58.550Z,12.86
2023-03-31T14:18:45.732Z,12.95
2023-03-31T14:21:33.922Z,12.95
2023-03-31T14:24:21.245Z,13.07
2023-03-31T14:27:07.749Z,13.16
2023-03-31T14:29:54.054Z,13.28
2023-03-31T14:32:41.229Z,13.38
2023-03-31T14:35:29.727Z,13.29
2023-03-31T14:38:18.003Z,13.34
2023-03-31T14:41:04.627Z,13.20
2023-03-31T14:43:50.902Z,13.38
2023-03-31T14:46:37.935Z,13.31
2023-03-31T14:49:27.288Z,13.27
2023-03-31T14:52:14.625Z,13.07
2023-03-31T14:55:02.180Z,13.17
2023-03-31T14:57:48.395Z,13.08
2023-03-31T15:00:34.823Z,13.01
2023-03-31T15:03:20.675Z,12.94
2023-03-31T15:06:06.733Z,12.86
2023-03-31T15:08:53.806Z,12.77
2023-03-31T15:11:40.934Z,12.67
2023-03-31T15:14:29.552Z,12.53
2023-03-31T15:17:22.422Z,12.37
2023-03-31T15:20:27.807Z,12.26
2023-03-31T15:23:24.655Z,12.10
2023-03-31T15:26:10.936Z,12.00
2023-03-31T15:28:58.468Z,11.95
2023-03-31T15:31:45.783Z,11.84
2023-03-31T15:34:33.233Z,11.74
2023-03-31T15:37:22.235Z,11.65
2023-03-31T15:40:11.829Z,11.57
2023-03-31T15:45:51.063Z,11.45
2023-03-31T15:48:37.709Z,11.42
2023-03-31T15:51:25.531Z,11.37
2023-03-31T15:54:26.977Z,11.34
2023-03-31T15:57:16.067Z,11.33
2023-03-31T16:00:02.134Z,11.35
2023-03-31T16:02:49.761Z,11.38
2023-03-31T16:05:43.584Z,11.35
2023-03-31T16:08:38.323Z,11.30
2023-03-31T16:11:25.051Z,11.32
2023-03-31T16:14:12.819Z,11.27
2023-03-31T16:16:59.303Z,11.26
2023-03-31T16:19:47.948Z,11.26
2023-03-31T16:22:35.392Z,11.18
2023-03-31T16:25:22.080Z,11.15
2023-03-31T16:28:07.944Z,11.25
2023-03-31T16:30:54.596Z,11.26
2023-03-31T16:33:52.917Z,11.21
2023-03-31T16:36:40.088Z,11.25
2023-03-31T16:39:25.864Z,11.25
2023-03-31T16:42:11.603Z,11.20
2023-03-31T16:45:12.644Z,11.25
2023-03-31T16:48:12.866Z,11.24
2023-03-31T16:51:02.348Z,11.24
2023-03-31T16:53:49.922Z,11.17
2023-03-31T16:56:36.330Z,11.17
2023-03-31T16:59:23.212Z,11.12
2023-03-31T17:02:10.516Z,11.15
2023-03-31T17:04:59.445Z,11.09
2023-03-31T17:07:52.582Z,11.09
2023-03-31T17:10:40.686Z,11.03
2023-03-31T17:13:26.488Z,10.97
2023-03-31T17:16:22.240Z,10.88
2023-03-31T17:19:15.573Z,10.91
2023-03-31T17:22:01.920Z,10.87
2023-03-31T17:24:48.753Z,10.83
2023-03-31T17:27:35.910Z,10.78
2023-03-31T17:30:22.106Z,10.74
2023-03-31T17:33:08.114Z,10.69
2023-03-31T17:35:56.379Z,10.67
2023-03-31T17:38:42.724Z,10.64
2023-03-31T17:41:29.715Z,10.55
2023-03-31T17:44:17.031Z,10.53
2023-03-31T17:47:03.074Z,10.52
2023-03-31T17:49:49.100Z,10.50
2023-03-31T17:52:35.559Z,10.44
2023-03-31T17:55:21.591Z,10.42
2023-03-31T17:58:08.605Z,10.33
2023-03-31T18:00:57.126Z,10.31
2023-03-31T18:03:44.880Z,10.25
2023-03-31T18:06:30.697Z,10.26
2023-03-31T18:09:16.905Z,10.24
2023-03-31T18:12:03.879Z,10.20
2023-03-31T18:14:50.646Z,10.18
2023-03-31T18:17:37.923Z,10.17
2023-03-31T18:20:24.187Z,10.12
2023-03-31T18:23:10.192Z,10.10
2023-03-31T18:25:56.058Z,10.06
2023-03-31T18:28:42.475Z,10.06
2023-03-31T18:31:28.573Z,10.04
2023-03-31T18:34:16.202Z,10.02
2023-03-31T18:37:02.404Z,9.98
2023-03-31T18:39:48.219Z,9.99
2023-03-31T18:42:34.303Z,9.97
2023-03-31T18:45:20.099Z,9.93
2023-03-31T18:48:06.055Z,9.91
2023-03-31T18:50:53.582Z,9.88
2023-03-31T18:53:39.659Z,9.87
2023-03-31T18:56:25.474Z,9.86
2023-03-31T18:59:11.157Z,9.86
2023-03-31T19:01:57.132Z,9.83
2023-03-31T19:04:43.565Z,9.83
2023-03-31T19:07:30.651Z,9.81
2023-03-31T19:10:16.621Z,9.72
2023-03-31T19:13:03.024Z,9.74
2023-03-31T19:15:48.988Z,9.75
2023-03-31T19:18:35.230Z,9.76
2023-03-31T19:21:21.131Z,9.76
2023-03-31T19:24:09.128Z,9.74
2023-03-31T19:26:56.530Z,9.71
2023-03-31T19:29:42.282Z,9.70
2023-03-31T19:32:28.051Z,9.67
2023-03-31T19:35:14.377Z,9.66
2023-03-31T19:38:00.199Z,9.64
2023-03-31T19:40:47.310Z,9.64
2023-03-31T19:43:33.210Z,9.59
2023-03-31T19:46:18.972Z,9.63
2023-03-31T19:49:04.813Z,9.56
2023-03-31T19:51:50.631Z,9.57
2023-03-31T19:54:37.048Z,9.58
2023-03-31T19:57:24.201Z,9.57
2023-03-31T20:00:10.699Z,9.58
2023-03-31T20:02:56.916Z,9.59
2023-03-31T20:05:43.632Z,9.58
2023-03-31T20:08:29.706Z,9.57
2023-03-31T20:11:16.096Z,9.57
2023-03-31T20:14:04.163Z,9.58
2023-03-31T20:16:50.962Z,9.58
2023-03-31T20:19:36.660Z,9.56
2023-03-31T20:22:22.438Z,9.56
2023-03-31T20:25:08.776Z,9.57
2023-03-31T20:27:54.841Z,9.58
2023-03-31T20:30:42.012Z,9.59
2023-03-31T20:33:27.809Z,9.60
2023-03-31T20:36:14.340Z,9.57
2023-03-31T20:39:02.806Z,9.58
2023-03-31T20:41:49.956Z,9.58
2023-03-31T20:44:36.073Z,9.56
2023-03-31T20:47:24.575Z,9.57
2023-03-31T20:50:11.342Z,9.54
2023-03-31T20:52:58.572Z,9.55
2023-03-31T20:55:44.549Z,9.56
2023-03-31T20:58:30.568Z,9.54
2023-03-31T21:01:16.795Z,9.56
2023-03-31T21:04:05.676Z,9.54
2023-03-31T21:06:53.684Z,9.52
2023-03-31T21:09:39.381Z,9.51
2023-03-31T21:12:25.057Z,9.51
2023-03-31T21:15:11.585Z,9.50
2023-03-31T21:17:57.233Z,9.50
2023-03-31T21:20:45.548Z,9.47
2023-03-31T21:23:31.864Z,9.47
2023-03-31T21:26:17.968Z,9.49
2023-03-31T21:29:03.793Z,9.45
2023-03-31T21:31:49.713Z,9.44
2023-03-31T21:34:35.367Z,9.43
2023-03-31T21:37:23.208Z,9.40
2023-03-31T21:40:10.100Z,9.41
2023-03-31T21:42:56.122Z,9.39
2023-03-31T21:45:42.260Z,9.40
2023-03-31T21:48:28.528Z,9.38
2023-03-31T21:51:14.600Z,9.38
2023-03-31T21:54:01.929Z,9.37
2023-03-31T21:56:47.716Z,9.38
2023-03-31T21:59:33.424Z,9.39
2023-03-31T22:02:19.309Z,9.40
2023-03-31T22:05:05.304Z,9.34
2023-03-31T22:07:51.804Z,9.35
2023-03-31T22:10:39.019Z,9.35
2023-03-31T22:13:25.096Z,9.33
2023-03-31T22:16:15.527Z,9.36
2023-03-31T22:19:01.465Z,9.36
2023-03-31T22:21:59.299Z,9.35
2023-03-31T22:24:45.275Z,9.35
2023-03-31T22:27:32.638Z,9.35
2023-03-31T22:30:18.443Z,9.32
2023-03-31T22:33:04.289Z,9.34
2023-03-31T22:35:50.466Z,9.36
2023-03-31T22:38:36.510Z,9.34
2023-03-31T22:41:22.336Z,9.33
2023-03-31T22:44:10.622Z,9.33
2023-03-31T22:46:56.483Z,9.32
2023-03-31T22:49:42.239Z,9.30
2023-03-31T22:52:28.204Z,9.31
2023-03-31T22:55:14.168Z,9.31
2023-03-31T22:58:00.250Z,9.31
2023-03-31T23:00:47.425Z,9.29
2023-03-31T23:03:33.567Z,9.30
2023-03-31T23:06:20.027Z,9.32
2023-03-31T23:09:05.910Z,9.28
2023-03-31T23:11:52.142Z,9.32
2023-03-31T23:14:37.886Z,9.31
2023-03-31T23:17:24.866Z,9.31
2023-03-31T23:20:11.325Z,9.31
2023-03-31T23:22:58.314Z,9.31
2023-03-31T23:25:44.155Z,9.30
2023-03-31T23:28:29.990Z,9.30
2023-03-31T23:31:15.784Z,9.30
2023-03-31T23:34:02.975Z,9.29
2023-03-31T23:36:48.861Z,9.25
2023-03-31T23:39:34.790Z,9.28
2023-03-31T23:42:21.339Z,9.27
2023-03-31T23:45:07.904Z,9.29
2023-03-31T23:47:54.003Z,9.28
2023-03-31T23:50:41.623Z,9.28
2023-03-31T23:53:27.717Z,9.25
2023-03-31T23:56:13.741Z,9.26
2023-03-31T23:58:59.829Z,9.22
